Weather observations for the past three days for
Fort Hood, Hood AAF Ft Hood
Metric (Imperial)
Date Time (cdt) Wind (kph) Vis. (km) Weather Sky Cond. Temperature (ºC) Relative Humidity Wind Chill (°C) Heat Index (°C) Pressure Precipitation (cm)
Air Dwpt 6 hour altimeter (cm) sea level (mb) 1 hr 3 hr 6 hr
Max. Min.
10 17:55 SE 20 14.48 Mostly Cloudy BKN045 29.6 20.1 57% 32 75.92 1011.2
10 16:55 SE 26 16.09 A Few Clouds FEW044 31.8 19.4 48% 34 75.9 1010.8
10 15:55 SE 17 16.09 A Few Clouds FEW040 31.6 20.2 51% 34 75.97 1011.8
10 14:55 E 19 G 28 16.09 A Few Clouds FEW038 31 20.9 55% 34 76.02 1012.5
10 13:55 SE 19 16.09 A Few Clouds FEW033 30.5 21.3 58% 33 76 1012.1
10 12:55 S 15 G 30 16.09 A Few Clouds FEW028 30.2 21.3 30.3 20.1 59% 33 76.02 1012.5
10 11:55 S 15 16.09 Fair CLR 28.3 21.1 65% 31 76.05 1012.9
10 10:55 SE 19 16.09 A Few Clouds FEW014 26.3 20.6 71% 28 76.07 1013.3
10 09:55 SE 17 16.09 Partly Cloudy SCT013 25.1 20.3 75% 26 76.07 1013.3
10 08:55 E 17 16.09 Fair CLR 23.5 19.8 80% 76.05 1012.9
10 07:55 E 15 16.09 Fair CLR 21.9 19.4 86% 75.97 1011.8
10 06:55 SE 11 16.09 Fair CLR 20 18.3 23.6 20 90% 75.87 1010.5
10 05:55 S 9 16.09 Fair CLR 20.7 18.6 88% 75.79 1009.4
10 04:55 S 11 16.09 Fair CLR 21.8 19 84% 75.77 1009.0
10 03:55 S 13 16.09 Fair CLR 22.8 19.1 80% 75.74 1008.7
10 02:55 S 19 16.09 Fair CLR 23 18.9 78% 75.74 1008.7
10 01:55 S 13 16.09 Fair CLR 23.4 19.1 77% 75.77 1009.0
10 00:55 SE 13 16.09 Fair CLR 23.4 19.9 31.7 23.3 81% 75.77 1009.1
09 23:55 S 13 16.09 Fair CLR 24.2 20.5 80% 25 75.74 1008.8
09 22:55 SE 13 16.09 Fair CLR 24.5 20.6 79% 25 75.77 1009.1
09 21:55 S 11 16.09 Fair CLR 25.3 20.3 74% 26 75.72 1008.5
09 20:55 SE 13 16.09 Fair CLR 27.1 19.7 64% 29 75.67 1007.8
09 19:55 SE 13 16.09 Fair CLR 29.7 18.4 51% 31 75.59 1006.8
09 18:55 SE 6 16.09 Fair CLR 31.7 19 33 29.5 47% 33 75.59 1006.8
09 17:55 E 7 16.09 A Few Clouds FEW065 31.4 18.3 46% 32 75.57 1006.4
09 16:55 SE 7 16.09 Fair CLR 32.8 18.2 42% 34 75.59 1006.7
09 15:55 W 6 16.09 Fair CLR 31.5 17.4 43% 32 75.62 1007.1
09 14:55 W 7 16.09 Fair CLR 31.7 17.5 43% 32 75.69 1008.1
09 13:55 SW 6 16.09 A Few Clouds FEW300 30.4 17.4 46% 31 75.77 1009.2
09 12:55 N 7 16.09 A Few Clouds FEW350 29.6 19 29.9 19 53% 31 75.82 1009.8
09 11:55 E 9 16.09 Fair CLR 28.6 19.8 59% 30 75.84 1010.2
09 10:55 N 17 16.09 Fair CLR 27.3 18.3 58% 28 75.84 1010.2
09 09:55 NE 11 16.09 Fair CLR 25 21.3 80% 26 75.84 1010.3
09 08:55 N 13 16.09 A Few Clouds FEW008 22.6 20.9 90% 75.77 1009.3
09 07:55 SW 17 8.05 Fog/Mist BKN002 20.4 19.9 97% 75.67 1008.0
09 06:55 S 9 8.05 Fog/Mist CLR 18.9 18.4 21.2 18.6 97% 75.67 1008.0
09 05:55 W 9 11.27 Overcast BKN004 OVC009 19.9 19.4 97% 75.84 1010.4
09 04:55 N 9 9.66 Fog/Mist FEW011 BKN080 19.9 19.4 97% 75.84 1010.4
09 03:55 N 7 8.05 Fog/Mist BKN009 19.8 19.3 97% 75.82 1010.1
09 02:55 Calm 9.66 Fog/Mist FEW011 20 19.3 96% 75.82 1010.1
09 01:55 Calm 14.48 Mostly Cloudy FEW034 BKN047 20.6 19.7 95% 75.79 1009.7
09 00:55 Calm 16.09 Overcast FEW013 OVC020 21.2 20.2 23 19.8 94% 75.77 1009.4
08 23:55 E 7 12.87 Mostly Cloudy BKN015 20.5 19.7 95% 75.74 1009.1
08 22:55 Calm 16.09 Fair CLR 20.4 19 92% 75.74 0.0
08 21:55 Calm 16.09 Fair CLR 21.4 19.8 91% 75.67 1008.1
08 20:55 Calm 14.48 Fair CLR 21.8 20.1 90% 75.64 1007.7
08 19:55 SE 15 14.48 Mostly Cloudy BKN065 22.9 20 84% 75.62 1007.5
08 18:55 SE 17 14.48 Overcast OVC065 23.1 19.8 23.3 20.3 82% 75.64 1007.8
08 17:55 SE 15 14.48 Mostly Cloudy FEW014 BKN060 23 19.3 80% 75.67 1008.2
08 16:55 E 11 16.09 Mostly Cloudy SCT011 BKN060 22.9 19 79% 75.69 1008.5
08 15:55 SE 9 16.09 Overcast OVC010 21.8 18.8 83% 75.77 1009.5
08 14:55 SE 11 16.09 Overcast OVC009 21.3 18.3 83% 75.82 1010.3
08 13:55 E 9 16.09 Overcast OVC009 20.4 18 86% 75.84 1010.6
08 12:55 E 6 16.09 Overcast OVC010 20.5 17.3 20.7 15.1 82% 75.9 1011.3
08 11:55 SE 7 14.48 Overcast OVC013 20 16.6 81% 75.97 1012.3
08 09:55 S 11 14.48 Mostly Cloudy BKN013 19.8 15.4 76% 76 1012.7
08 08:55 Calm 14.48 Overcast OVC015 17.1 14.2 83% 76.05 1013.4
08 07:55 Calm 16.09 Overcast OVC018 15.8 14.2 90% 76.05 1013.4
08 06:55 Calm 14.48 Partly Cloudy SCT025 15.1 14 15.9 14.1 93% 76.02 1013.1
08 05:55 SE 6 16.09 Thunderstorm in Vicinity BKN021 OVC030 15.8 13.3 85% 76.07 1013.7
08 04:55 NE 6 16.09 Overcast OVC022 15.5 13.9 90% 76.1 1014.0
08 03:55 N 6 16.09 Overcast OVC025 15.7 13.7 88% 76.1 1014.1
08 02:55 NE 9 16.09 Overcast OVC021 15.5 13.5 88% 76.05 1013.3
08 01:55 Calm 16.09 Partly Cloudy SCT260 15 13.4 90% 76.1 1014.1
08 00:55 Calm 16.09 Fair CLR 14.6 13.1 18.6 14.6 91% 76.12 1014.5
07 23:55 NW 6 16.09 Partly Cloudy SCT240 15.6 13.6 88% 76.17 1015.1
07 22:55 Calm 16.09 Fair CLR 15.5 13.7 89% 76.17 1015.2
07 21:55 N 6 16.09 Fair CLR 16.5 13.2 81% 76.12 1014.4
07 20:55 NE 9 16.09 A Few Clouds FEW230 17.2 12.5 74% 76.05 1013.5
07 19:55 E 7 14.48 Partly Cloudy FEW110 SCT230 18 12 68% 76.07 1013.8
07 18:55 Calm 11.27 Fair CLR 18.7 11.7 19.5 17.3 64% 76.15 1014.8
Date Time (cdt) Wind (kph) Vis. (km) Weather Sky Cond. Air Dwpt Max. Min. Relative Humidity Wind Chill (°C) Heat Index (°C) altimeter (cm) sea level (mb) 1 hr 3 hr 6 hr
6 hour
Temperature (ºC) Pressure Precipitation (cm)